Arca — PDHT — position and weather

sailwx.info

Track history (hours):
 
Tides and Currents Weather Stations Pressure Air Temp Water Temp Dewpoint Dewpoint Depression Visibility Wind Speed Wind Dir Waves Ship Positions

Oceanographic research ship Arca (Netherlands)

Detailed information on ship capabilities available from University of Delaware's Ocean Information Center.

Last reported at 2020-Jul-15 12:00 UTC. Time now 2020-Jul-15 18:09 UTC.
Position N 52°28' E 004°33'.

Length 83 m; draft 5 m.

Type: Law enforcement. MMSI: 244454000.

Date/timePositionNaut miles runAvg speedWind from/ knotsBaromVisibWave heightAir tempDewpointWater temp
2020-Jul-15 12:00N 52°28' E 004°33'0 0.1
2020-Jul-15 10:30N 52°28' E 004°33'0 0.0
2020-Jul-15 06:00N 52°28' E 004°33'2 1.6
2020-Jul-15 04:30N 52°30' E 004°31'0 0.0
2020-Jul-15 04:00N 52°30' E 004°31'0 0.0
2020-Jul-15 02:30N 52°30' E 004°31'0 0.0
2020-Jul-15 00:30N 52°30' E 004°31'0 0.0
2020-Jul-14 23:30N 52°30' E 004°31'2 1.1
2020-Jul-14 21:30N 52°32' E 004°31'611.3
2020-Jul-14 21:00N 52°38' E 004°31'611.6
2020-Jul-14 20:30N 52°44' E 004°30'22 4.7
2020-Jul-14 15:52N 53°05' E 004°33'37 4.2
2020-Jul-14 07:00N 52°28' E 004°31'2 4.4
2020-Jul-14 06:30N 52°28' E 004°28'4 2.6
2020-Jul-14 04:59N 52°26' E 004°22'0 0.0
2020-Jul-14 03:29N 52°26' E 004°22'0 0.0
2020-Jul-14 02:29N 52°26' E 004°22'0 0.0
2020-Jul-14 01:29N 52°26' E 004°22'0 0.0
2020-Jul-14 00:29N 52°26' E 004°22'6 0.9
2020-Jul-13 18:00N 52°28' E 004°31'0 0.5
2020-Jul-13 17:00N 52°28' E 004°32'2 0.7
2020-Jul-13 13:30N 52°27' E 004°28'510.6
2020-Jul-13 13:01N 52°22' E 004°25'17 3.4
2020-Jul-13 07:58N 52°06' E 004°16'0 0.0
2020-Jul-13 02:58N 52°06' E 004°16'0 0.0
2020-Jul-12 22:28N 52°06' E 004°16'0 0.0
2020-Jul-12 21:58N 52°06' E 004°16'0 0.0
2020-Jul-12 18:58N 52°06' E 004°16'0 0.0
2020-Jul-12 18:28N 52°06' E 004°16'0 0.0
2020-Jul-12 14:28N 52°06' E 004°16'0 0.0
2020-Jul-12 13:28N 52°06' E 004°16'0 0.0
2020-Jul-12 12:28N 52°06' E 004°16'0 0.0
2020-Jul-12 10:58N 52°06' E 004°16'0 0.0
2020-Jul-12 07:28N 52°06' E 004°16'0 0.0
2020-Jul-12 04:55N 52°06' E 004°16'0 0.0
2020-Jul-12 01:28N 52°06' E 004°16'0 0.0
2020-Jul-11 23:58N 52°06' E 004°16'0 0.0
2020-Jul-11 22:28N 52°06' E 004°16'0 0.0
2020-Jul-11 20:58N 52°06' E 004°16'0 0.0
2020-Jul-11 18:58N 52°06' E 004°16'0 0.0
2020-Jul-11 15:28N 52°06' E 004°16'0 0.0
2020-Jul-11 13:28N 52°06' E 004°16'0 0.0
2020-Jul-11 10:58N 52°06' E 004°16'0 0.0
2020-Jul-11 08:58N 52°06' E 004°16'0 0.0
2020-Jul-11 07:58N 52°06' E 004°16'0 0.0
2020-Jul-11 03:28N 52°06' E 004°16'0 0.0
2020-Jul-11 02:58N 52°06' E 004°16'0 0.0
2020-Jul-11 02:28N 52°06' E 004°16'0 0.0
2020-Jul-11 01:58N 52°06' E 004°16'0 0.0
2020-Jul-11 00:58N 52°06' E 004°16'0 0.0
2020-Jul-10 22:28N 52°06' E 004°16'0 0.0
2020-Jul-10 19:28N 52°06' E 004°16'0 0.0
2020-Jul-10 18:58N 52°06' E 004°16'0 0.0
2020-Jul-10 15:58N 52°06' E 004°16'0 0.0
2020-Jul-10 14:58N 52°06' E 004°16'0 0.0
2020-Jul-10 13:28N 52°06' E 004°16'0 0.0
2020-Jul-10 11:58N 52°06' E 004°16'0 0.0
2020-Jul-10 10:58N 52°06' E 004°16'0 0.0
2020-Jul-10 08:26N 52°06' E 004°16'0 0.0
2020-Jul-10 05:59N 52°06' E 004°16'0 0.0
2020-Jul-10 05:29N 52°06' E 004°16'0 0.0
2020-Jul-10 02:29N 52°06' E 004°16'0 0.0
2020-Jul-10 01:59N 52°06' E 004°16'0 0.0
2020-Jul-10 01:29N 52°06' E 004°16'0 0.0
2020-Jul-10 00:59N 52°06' E 004°16'0 0.0
2020-Jul-10 00:29N 52°06' E 004°16'0 0.0
2020-Jul-09 21:56N 52°06' E 004°16'0 0.0
2020-Jul-09 19:59N 52°06' E 004°16'0 0.0
2020-Jul-09 15:59N 52°06' E 004°16'0 0.0
2020-Jul-09 14:59N 52°06' E 004°16'0 0.0
2020-Jul-09 13:59N 52°06' E 004°16'0 0.0
2020-Jul-09 12:29N 52°06' E 004°16'0 0.0
2020-Jul-09 11:56N 52°06' E 004°16'0 0.0
2020-Jul-09 11:29N 52°06' E 004°16'0 0.0
2020-Jul-09 10:29N 52°06' E 004°16'0 0.0
2020-Jul-09 08:59N 52°06' E 004°16'0 0.0
2020-Jul-09 08:29N 52°06' E 004°16'0 0.0
2020-Jul-09 06:59N 52°06' E 004°16'0 0.0
2020-Jul-09 05:59N 52°06' E 004°16'0 0.0
2020-Jul-09 02:59N 52°06' E 004°16'0 0.0
2020-Jul-08 21:59N 52°06' E 004°16'0 0.0
2020-Jul-08 20:29N 52°06' E 004°16'0 0.0
2020-Jul-08 17:29N 52°06' E 004°16'0 0.0
2020-Jul-08 16:59N 52°06' E 004°16'0 0.1
2020-Jul-08 15:31N 52°06' E 004°15'10 6.8
2020-Jul-08 14:01N 52°04' E 003°59'0 0.3
2020-Jul-08 13:30N 52°04' E 003°59'0 0.8
2020-Jul-08 13:01N 52°03' E 003°59'0 0.7
2020-Jul-08 12:31N 52°04' E 003°59'1 0.9
2020-Jul-08 11:01N 52°05' E 004°01'5 0.8
2020-Jul-08 05:30N 52°00' E 004°01'2 0.9
2020-Jul-08 02:59N 51°60' E 004°04'0 0.0
2020-Jul-07 22:56N 51°60' E 004°04'0 0.0
2020-Jul-07 21:59N 51°60' E 004°04'0 0.0
2020-Jul-07 20:29N 51°60' E 004°04'4 2.1
2020-Jul-07 18:30N 52°01' E 003°58'4 1.4
2020-Jul-07 16:01N 51°59' E 004°03'0 0.2
2020-Jul-07 15:00N 51°59' E 004°03'0 0.2
2020-Jul-07 14:00N 51°60' E 004°03'0 0.4
2020-Jul-07 13:01N 51°59' E 004°03'3 1.8
2020-Jul-07 11:31N 52°00' E 003°59'1 2.9
2020-Jul-07 11:00N 52°00' E 004°01'1 0.4
2020-Jul-07 07:30N 51°59' E 004°03'0 0.2
2020-Jul-07 05:30N 51°59' E 004°03'2 3.3
2020-Jul-07 05:00N 51°58' E 004°05'2 1.0
2020-Jul-07 03:30N 51°60' E 004°04'0 0.0
2020-Jul-07 03:00N 51°60' E 004°04'0 0.0
2020-Jul-07 00:00N 51°60' E 004°04'0 0.0
2020-Jul-06 22:27N 51°60' E 004°04'1 0.2
2020-Jul-06 19:00N 51°59' E 004°04'2 4.3
2020-Jul-06 18:30N 51°58' E 004°07'1 0.8
2020-Jul-06 17:30N 51°58' E 004°05'0 0.5
2020-Jul-06 17:00N 51°59' E 004°05'1 0.1
2020-Jul-06 12:00N 51°58' E 004°06'2 2.2
2020-Jul-06 11:00N 51°59' E 004°03'4 4.3
2020-Jul-06 10:00N 52°03' E 004°05'3 6.7
2020-Jul-06 09:30N 52°05' E 004°09'4 4.0
2020-Jul-06 08:29N 52°06' E 004°16'0 0.0
2020-Jul-06 07:59N 52°06' E 004°16'0 0.0
2020-Jul-06 04:29N 52°06' E 004°16'0 0.0
2020-Jul-06 02:59N 52°06' E 004°16'0 0.0
2020-Jul-06 02:29N 52°06' E 004°16'0 0.0
2020-Jul-06 01:29N 52°06' E 004°16'0 0.0
2020-Jul-05 21:59N 52°06' E 004°16'0 0.0
2020-Jul-05 19:59N 52°06' E 004°16'0 0.0
2020-Jul-05 15:59N 52°06' E 004°16'0 0.0
2020-Jul-05 15:29N 52°06' E 004°16'0 0.0
2020-Jul-05 12:29N 52°06' E 004°16'  
Track history (hours):
 
Tides and Currents Weather Stations Pressure Air Temp Water Temp Dewpoint Dewpoint Depression Visibility Wind Speed Wind Dir Waves Ship Positions

Oceanographic research ship Arca (Netherlands)

Detailed information on ship capabilities available from University of Delaware's Ocean Information Center.

Last reported at 2020-Jul-15 12:00 UTC. Time now 2020-Jul-15 18:09 UTC.
Position N 52°28' E 004°33'.

Length 83 m; draft 5 m.

Type: Law enforcement. MMSI: 244454000.

Date/timePositionNaut miles runAvg speedWind from/ knotsBaromVisibWave heightAir tempDewpointWater temp
2020-Jul-15 12:00N 52°28' E 004°33'0 0.1
2020-Jul-15 10:30N 52°28' E 004°33'0 0.0
2020-Jul-15 06:00N 52°28' E 004°33'2 1.6
2020-Jul-15 04:30N 52°30' E 004°31'0 0.0
2020-Jul-15 04:00N 52°30' E 004°31'0 0.0
2020-Jul-15 02:30N 52°30' E 004°31'0 0.0
2020-Jul-15 00:30N 52°30' E 004°31'0 0.0
2020-Jul-14 23:30N 52°30' E 004°31'2 1.1
2020-Jul-14 21:30N 52°32' E 004°31'611.3
2020-Jul-14 21:00N 52°38' E 004°31'611.6
2020-Jul-14 20:30N 52°44' E 004°30'22 4.7
2020-Jul-14 15:52N 53°05' E 004°33'37 4.2
2020-Jul-14 07:00N 52°28' E 004°31'2 4.4
2020-Jul-14 06:30N 52°28' E 004°28'4 2.6
2020-Jul-14 04:59N 52°26' E 004°22'0 0.0
2020-Jul-14 03:29N 52°26' E 004°22'0 0.0
2020-Jul-14 02:29N 52°26' E 004°22'0 0.0
2020-Jul-14 01:29N 52°26' E 004°22'0 0.0
2020-Jul-14 00:29N 52°26' E 004°22'6 0.9
2020-Jul-13 18:00N 52°28' E 004°31'0 0.5
2020-Jul-13 17:00N 52°28' E 004°32'2 0.7
2020-Jul-13 13:30N 52°27' E 004°28'510.6
2020-Jul-13 13:01N 52°22' E 004°25'17 3.4
2020-Jul-13 07:58N 52°06' E 004°16'0 0.0
2020-Jul-13 02:58N 52°06' E 004°16'0 0.0
2020-Jul-12 22:28N 52°06' E 004°16'0 0.0
2020-Jul-12 21:58N 52°06' E 004°16'0 0.0
2020-Jul-12 18:58N 52°06' E 004°16'0 0.0
2020-Jul-12 18:28N 52°06' E 004°16'0 0.0
2020-Jul-12 14:28N 52°06' E 004°16'0 0.0
2020-Jul-12 13:28N 52°06' E 004°16'0 0.0
2020-Jul-12 12:28N 52°06' E 004°16'0 0.0
2020-Jul-12 10:58N 52°06' E 004°16'0 0.0
2020-Jul-12 07:28N 52°06' E 004°16'0 0.0
2020-Jul-12 04:55N 52°06' E 004°16'0 0.0
2020-Jul-12 01:28N 52°06' E 004°16'0 0.0
2020-Jul-11 23:58N 52°06' E 004°16'0 0.0
2020-Jul-11 22:28N 52°06' E 004°16'0 0.0
2020-Jul-11 20:58N 52°06' E 004°16'0 0.0
2020-Jul-11 18:58N 52°06' E 004°16'0 0.0
2020-Jul-11 15:28N 52°06' E 004°16'0 0.0
2020-Jul-11 13:28N 52°06' E 004°16'0 0.0
2020-Jul-11 10:58N 52°06' E 004°16'0 0.0
2020-Jul-11 08:58N 52°06' E 004°16'0 0.0
2020-Jul-11 07:58N 52°06' E 004°16'0 0.0
2020-Jul-11 03:28N 52°06' E 004°16'0 0.0
2020-Jul-11 02:58N 52°06' E 004°16'0 0.0
2020-Jul-11 02:28N 52°06' E 004°16'0 0.0
2020-Jul-11 01:58N 52°06' E 004°16'0 0.0
2020-Jul-11 00:58N 52°06' E 004°16'0 0.0
2020-Jul-10 22:28N 52°06' E 004°16'0 0.0
2020-Jul-10 19:28N 52°06' E 004°16'0 0.0
2020-Jul-10 18:58N 52°06' E 004°16'0 0.0
2020-Jul-10 15:58N 52°06' E 004°16'0 0.0
2020-Jul-10 14:58N 52°06' E 004°16'0 0.0
2020-Jul-10 13:28N 52°06' E 004°16'0 0.0
2020-Jul-10 11:58N 52°06' E 004°16'0 0.0
2020-Jul-10 10:58N 52°06' E 004°16'0 0.0
2020-Jul-10 08:26N 52°06' E 004°16'0 0.0
2020-Jul-10 05:59N 52°06' E 004°16'0 0.0
2020-Jul-10 05:29N 52°06' E 004°16'0 0.0
2020-Jul-10 02:29N 52°06' E 004°16'0 0.0
2020-Jul-10 01:59N 52°06' E 004°16'0 0.0
2020-Jul-10 01:29N 52°06' E 004°16'0 0.0
2020-Jul-10 00:59N 52°06' E 004°16'0 0.0
2020-Jul-10 00:29N 52°06' E 004°16'0 0.0
2020-Jul-09 21:56N 52°06' E 004°16'0 0.0
2020-Jul-09 19:59N 52°06' E 004°16'0 0.0
2020-Jul-09 15:59N 52°06' E 004°16'0 0.0
2020-Jul-09 14:59N 52°06' E 004°16'0 0.0
2020-Jul-09 13:59N 52°06' E 004°16'0 0.0
2020-Jul-09 12:29N 52°06' E 004°16'0 0.0
2020-Jul-09 11:56N 52°06' E 004°16'0 0.0
2020-Jul-09 11:29N 52°06' E 004°16'0 0.0
2020-Jul-09 10:29N 52°06' E 004°16'0 0.0
2020-Jul-09 08:59N 52°06' E 004°16'0 0.0
2020-Jul-09 08:29N 52°06' E 004°16'0 0.0
2020-Jul-09 06:59N 52°06' E 004°16'0 0.0
2020-Jul-09 05:59N 52°06' E 004°16'0 0.0
2020-Jul-09 02:59N 52°06' E 004°16'0 0.0
2020-Jul-08 21:59N 52°06' E 004°16'0 0.0
2020-Jul-08 20:29N 52°06' E 004°16'0 0.0
2020-Jul-08 17:29N 52°06' E 004°16'0 0.0
2020-Jul-08 16:59N 52°06' E 004°16'0 0.1
2020-Jul-08 15:31N 52°06' E 004°15'10 6.8
2020-Jul-08 14:01N 52°04' E 003°59'0 0.3
2020-Jul-08 13:30N 52°04' E 003°59'0 0.8
2020-Jul-08 13:01N 52°03' E 003°59'0 0.7
2020-Jul-08 12:31N 52°04' E 003°59'1 0.9
2020-Jul-08 11:01N 52°05' E 004°01'5 0.8
2020-Jul-08 05:30N 52°00' E 004°01'2 0.9
2020-Jul-08 02:59N 51°60' E 004°04'0 0.0
2020-Jul-07 22:56N 51°60' E 004°04'0 0.0
2020-Jul-07 21:59N 51°60' E 004°04'0 0.0
2020-Jul-07 20:29N 51°60' E 004°04'4 2.1
2020-Jul-07 18:30N 52°01' E 003°58'4 1.4
2020-Jul-07 16:01N 51°59' E 004°03'0 0.2
2020-Jul-07 15:00N 51°59' E 004°03'0 0.2
2020-Jul-07 14:00N 51°60' E 004°03'0 0.4
2020-Jul-07 13:01N 51°59' E 004°03'3 1.8
2020-Jul-07 11:31N 52°00' E 003°59'1 2.9
2020-Jul-07 11:00N 52°00' E 004°01'1 0.4
2020-Jul-07 07:30N 51°59' E 004°03'0 0.2
2020-Jul-07 05:30N 51°59' E 004°03'2 3.3
2020-Jul-07 05:00N 51°58' E 004°05'2 1.0
2020-Jul-07 03:30N 51°60' E 004°04'0 0.0
2020-Jul-07 03:00N 51°60' E 004°04'0 0.0
2020-Jul-07 00:00N 51°60' E 004°04'0 0.0
2020-Jul-06 22:27N 51°60' E 004°04'1 0.2
2020-Jul-06 19:00N 51°59' E 004°04'2 4.3
2020-Jul-06 18:30N 51°58' E 004°07'1 0.8
2020-Jul-06 17:30N 51°58' E 004°05'0 0.5
2020-Jul-06 17:00N 51°59' E 004°05'1 0.1
2020-Jul-06 12:00N 51°58' E 004°06'2 2.2
2020-Jul-06 11:00N 51°59' E 004°03'4 4.3
2020-Jul-06 10:00N 52°03' E 004°05'3 6.7
2020-Jul-06 09:30N 52°05' E 004°09'4 4.0
2020-Jul-06 08:29N 52°06' E 004°16'0 0.0
2020-Jul-06 07:59N 52°06' E 004°16'0 0.0
2020-Jul-06 04:29N 52°06' E 004°16'0 0.0
2020-Jul-06 02:59N 52°06' E 004°16'0 0.0
2020-Jul-06 02:29N 52°06' E 004°16'0 0.0
2020-Jul-06 01:29N 52°06' E 004°16'0 0.0
2020-Jul-05 21:59N 52°06' E 004°16'0 0.0
2020-Jul-05 19:59N 52°06' E 004°16'0 0.0
2020-Jul-05 15:59N 52°06' E 004°16'0 0.0
2020-Jul-05 15:29N 52°06' E 004°16'0 0.0
2020-Jul-05 12:29N 52°06' E 004°16'  

Dump ship's entire track history